createdAt,value
2023-05-09T00:00:57.742Z,101984.54
2023-05-09T00:06:01.196Z,101978.95
2023-05-09T00:11:04.351Z,101978.93
2023-05-09T00:16:08.297Z,101979.20
2023-05-09T00:21:11.640Z,101974.13
2023-05-09T00:26:14.482Z,101973.30
2023-05-09T00:31:17.210Z,101969.66
2023-05-09T00:36:20.097Z,101968.71
2023-05-09T00:41:22.900Z,101965.55
2023-05-09T00:46:25.770Z,101966.47
2023-05-09T00:51:28.776Z,101966.17
2023-05-09T00:56:31.948Z,101966.40
2023-05-09T01:01:34.875Z,101968.36
2023-05-09T01:06:58.077Z,101971.55
2023-05-09T01:12:09.986Z,101965.10
2023-05-09T01:17:39.557Z,101963.01
2023-05-09T01:22:49.994Z,101966.00
2023-05-09T01:28:12.420Z,101962.88
2023-05-09T01:33:18.292Z,101959.52
2023-05-09T01:38:22.303Z,101960.52
2023-05-09T01:43:27.546Z,101966.40
2023-05-09T01:48:30.544Z,101960.78
2023-05-09T01:53:33.511Z,101962.39
2023-05-09T01:58:36.262Z,101965.31
2023-05-09T02:03:39.108Z,101961.00
2023-05-09T02:08:41.835Z,101956.34
2023-05-09T02:13:44.894Z,101961.80
2023-05-09T02:18:47.948Z,101956.52
2023-05-09T02:23:50.694Z,101961.20
2023-05-09T02:28:53.645Z,101963.25
2023-05-09T02:33:56.844Z,101959.64
2023-05-09T02:39:01.216Z,101959.45
2023-05-09T02:44:05.366Z,101959.11
2023-05-09T02:49:10.121Z,101961.91
2023-05-09T02:54:13.374Z,101963.42
2023-05-09T02:59:18.444Z,101962.67
2023-05-09T03:04:23.115Z,101962.52
2023-05-09T03:09:26.307Z,101963.27
2023-05-09T03:14:29.110Z,101963.43
2023-05-09T03:19:32.698Z,101967.48
2023-05-09T03:24:35.508Z,101966.63
2023-05-09T03:29:38.572Z,101965.52
2023-05-09T03:34:41.754Z,101962.11
2023-05-09T03:39:44.526Z,101961.05
2023-05-09T03:44:47.707Z,101964.67
2023-05-09T03:49:50.826Z,101965.81
2023-05-09T03:54:53.842Z,101965.84
2023-05-09T03:59:56.653Z,101962.04
2023-05-09T04:05:01.708Z,101974.02
2023-05-09T04:10:06.447Z,101974.77
2023-05-09T04:15:11.184Z,101976.10
2023-05-09T04:20:14.084Z,101978.10
2023-05-09T04:34:05.422Z,101974.37
2023-05-09T04:39:12.960Z,101973.48
2023-05-09T05:21:59.420Z,101974.27
2023-05-09T05:27:03.281Z,101972.10
2023-05-09T05:32:07.693Z,101973.30
2023-05-09T05:37:10.477Z,101971.80
2023-05-09T05:43:53.528Z,101968.33
2023-05-09T05:48:59.078Z,101956.40
2023-05-09T06:01:24.305Z,101949.50
2023-05-09T06:06:27.831Z,101949.83
2023-05-09T06:11:30.847Z,101952.49
2023-05-09T06:16:39.992Z,101950.61
2023-05-09T06:21:42.812Z,101950.05
2023-05-09T06:26:46.087Z,101944.57
2023-05-09T06:31:49.222Z,101939.73
2023-05-09T06:36:52.533Z,101947.18
2023-05-09T06:41:55.322Z,101946.55
2023-05-09T06:46:58.406Z,101949.00
2023-05-09T06:52:02.753Z,101950.42
2023-05-09T06:57:05.683Z,101945.33
2023-05-09T07:02:08.870Z,101943.68
2023-05-09T07:07:11.673Z,101932.24
2023-05-09T07:12:14.385Z,101927.95
2023-05-09T07:17:23.704Z,101919.99
2023-05-09T07:22:28.785Z,101918.23
2023-05-09T07:27:33.554Z,101919.53
2023-05-09T07:32:36.479Z,101916.02
2023-05-09T07:37:39.244Z,101910.16
2023-05-09T07:42:49.495Z,101902.78
2023-05-09T07:47:52.346Z,101905.29
2023-05-09T07:52:55.785Z,101900.46
2023-05-09T07:57:58.520Z,101893.61
2023-05-09T08:03:01.554Z,101892.19
2023-05-09T08:08:04.886Z,101893.70
2023-05-09T08:13:07.717Z,101890.50
2023-05-09T08:18:10.789Z,101884.89
2023-05-09T08:23:13.870Z,101878.61
2023-05-09T08:28:16.810Z,101878.15
2023-05-09T08:33:19.537Z,101867.08
2023-05-09T08:38:22.531Z,101864.50
2023-05-09T08:43:46.076Z,101863.02
2023-05-09T08:48:49.140Z,101856.91
2023-05-09T08:53:52.037Z,101855.21
2023-05-09T08:58:54.784Z,101844.02
2023-05-09T09:03:57.641Z,101837.45
2023-05-09T09:09:00.599Z,101831.38
2023-05-09T09:14:18.592Z,101836.02
2023-05-09T09:19:21.394Z,101834.63
2023-05-09T09:24:24.664Z,101827.98
2023-05-09T09:29:28.727Z,101824.91
2023-05-09T09:34:31.829Z,101823.02
2023-05-09T09:39:34.607Z,101818.95
2023-05-09T09:44:37.355Z,101816.23
2023-05-09T09:49:46.101Z,101810.16
2023-05-09T09:54:48.996Z,101810.05
2023-05-09T09:59:59.673Z,101808.27
2023-05-09T10:05:09.307Z,101805.12
2023-05-09T10:10:12.116Z,101797.38
2023-05-09T10:15:18.728Z,101791.50
2023-05-09T10:20:22.276Z,101792.63
2023-05-09T10:25:40.666Z,101788.19
2023-05-09T10:30:55.521Z,101776.80
2023-05-09T12:19:51.112Z,101645.97
2023-05-09T12:24:54.877Z,101645.34
2023-05-09T12:29:57.746Z,101637.41
2023-05-09T12:35:00.573Z,101627.19
2023-05-09T12:40:13.044Z,101622.10
2023-05-09T12:45:16.284Z,101612.73
2023-05-09T12:50:19.525Z,101608.98
2023-05-09T12:55:22.245Z,101601.58
2023-05-09T13:00:25.498Z,101601.21
2023-05-09T13:05:28.305Z,101595.36
2023-05-09T13:10:31.052Z,101584.38
2023-05-09T13:15:34.006Z,101573.52
2023-05-09T13:20:36.842Z,101571.58
2023-05-09T13:25:39.542Z,101565.92
2023-05-09T13:30:42.338Z,101560.95
2023-05-09T13:35:47.075Z,101553.80
2023-05-09T13:40:51.639Z,101541.84
2023-05-09T13:45:54.490Z,101538.15
2023-05-09T13:50:59.592Z,101537.38
2023-05-09T13:56:02.450Z,101531.52
2023-05-09T14:01:05.455Z,101527.52
2023-05-09T14:06:10.515Z,101526.98
2023-05-09T14:11:13.730Z,101514.10
2023-05-09T14:16:16.867Z,101508.19
2023-05-09T14:21:19.684Z,101500.11
2023-05-09T14:26:22.497Z,101496.06
2023-05-09T14:31:25.413Z,101486.58
2023-05-09T14:36:28.873Z,101487.15
2023-05-09T14:41:31.819Z,101485.47
2023-05-09T14:46:34.745Z,101482.01
2023-05-09T14:51:37.744Z,101480.22
2023-05-09T14:56:40.573Z,101478.40
2023-05-09T15:01:43.624Z,101476.08
2023-05-09T15:06:46.426Z,101461.39
2023-05-09T15:11:49.498Z,101451.38
2023-05-09T15:16:53.239Z,101456.60
2023-05-09T15:21:56.038Z,101450.08
2023-05-09T15:26:58.859Z,101439.15
2023-05-09T15:32:01.567Z,101439.60
2023-05-09T15:37:04.665Z,101431.35
2023-05-09T15:42:08.920Z,101429.98
2023-05-09T15:47:11.798Z,101425.18
2023-05-09T15:52:14.909Z,101418.33
2023-05-09T15:57:18.215Z,101416.52
2023-05-09T16:02:22.277Z,101416.17
2023-05-09T16:07:26.179Z,101414.45
2023-05-09T16:12:29.337Z,101406.45
2023-05-09T16:17:32.227Z,101395.24
2023-05-09T16:22:34.998Z,101387.88
2023-05-09T16:27:37.833Z,101387.77
2023-05-09T16:32:40.696Z,101384.95
2023-05-09T16:37:44.177Z,101379.66
2023-05-09T16:42:47.204Z,101375.34
2023-05-09T16:47:51.140Z,101368.20
2023-05-09T16:52:54.273Z,101368.06
2023-05-09T16:57:57.019Z,101360.55
2023-05-09T17:02:59.861Z,101352.21
2023-05-09T17:08:02.674Z,101351.59
2023-05-09T17:13:08.583Z,101350.67
2023-05-09T17:18:17.062Z,101353.68
2023-05-09T17:23:22.238Z,101351.17
2023-05-09T17:28:25.347Z,101352.30
2023-05-09T17:33:28.219Z,101353.27
2023-05-09T17:38:31.033Z,101348.95
2023-05-09T17:43:34.309Z,101347.42
2023-05-09T17:48:37.148Z,101351.98
2023-05-09T17:53:39.987Z,101355.05
2023-05-09T17:58:42.872Z,101357.48
2023-05-09T18:03:46.315Z,101361.06
2023-05-09T18:08:49.097Z,101358.52
2023-05-09T18:13:51.897Z,101359.16
2023-05-09T18:18:54.719Z,101362.52
2023-05-09T18:23:57.729Z,101362.17
2023-05-09T18:29:01.419Z,101361.95
2023-05-09T18:34:05.655Z,101362.80
2023-05-09T18:39:09.007Z,101366.27
2023-05-09T18:44:11.783Z,101369.01
2023-05-09T18:49:15.560Z,101366.90
2023-05-09T18:54:18.376Z,101377.55
2023-05-09T18:59:21.962Z,101378.83
2023-05-09T19:04:25.334Z,101377.70
2023-05-09T19:09:29.174Z,101376.34
2023-05-09T19:14:32.198Z,101373.31
2023-05-09T19:19:35.033Z,101365.99
2023-05-09T19:24:37.902Z,101365.90
2023-05-09T19:29:40.760Z,101370.75
2023-05-09T19:34:43.676Z,101367.87
2023-05-09T19:39:46.737Z,101363.77
2023-05-09T19:44:52.308Z,101362.84
2023-05-09T19:49:55.026Z,101359.83
2023-05-09T19:54:57.843Z,101358.70
2023-05-09T20:00:00.686Z,101358.92
2023-05-09T20:05:03.799Z,101355.94
2023-05-09T20:10:07.089Z,101356.27
2023-05-09T20:15:10.309Z,101356.91
2023-05-09T20:20:13.686Z,101355.59
2023-05-09T20:25:16.827Z,101358.08
2023-05-09T20:30:19.737Z,101355.83
2023-05-09T20:35:23.077Z,101352.64
2023-05-09T20:40:25.869Z,101353.22
2023-05-09T20:45:28.740Z,101352.36
2023-05-09T20:50:31.648Z,101351.16
2023-05-09T20:55:34.764Z,101345.66
2023-05-09T21:00:37.590Z,101345.63
2023-05-09T21:05:40.846Z,101347.14
2023-05-09T21:10:43.703Z,101344.64
2023-05-09T21:15:50.346Z,101342.38
2023-05-09T21:20:53.285Z,101340.86
2023-05-09T21:25:56.106Z,101340.34
2023-05-09T21:31:01.467Z,101345.67
2023-05-09T21:36:04.625Z,101341.80
2023-05-09T21:41:07.400Z,101343.95
2023-05-09T21:46:10.418Z,101345.17
2023-05-09T21:51:13.228Z,101339.10
2023-05-09T21:56:15.923Z,101345.27
2023-05-09T22:01:19.135Z,101341.32
2023-05-09T22:06:22.075Z,101342.31
2023-05-09T22:11:24.805Z,101345.73
2023-05-09T22:16:27.706Z,101343.27
2023-05-09T22:21:31.429Z,101344.23
2023-05-09T22:26:34.241Z,101349.87
2023-05-09T22:31:36.997Z,101342.39
2023-05-09T22:36:39.880Z,101337.98
2023-05-09T22:41:42.683Z,101336.20
2023-05-09T22:46:45.385Z,101332.61
2023-05-09T22:51:48.233Z,101333.17
2023-05-09T22:56:51.143Z,101331.93
2023-05-09T23:01:53.972Z,101330.95
2023-05-09T23:06:56.753Z,101330.14
2023-05-09T23:11:59.597Z,101332.27
2023-05-09T23:17:02.461Z,101335.17
2023-05-09T23:22:05.436Z,101330.68
2023-05-09T23:27:08.343Z,101321.48
2023-05-09T23:32:11.066Z,101323.78
2023-05-09T23:37:13.844Z,101325.59
2023-05-09T23:42:16.656Z,101323.80
2023-05-09T23:47:19.361Z,101320.09
2023-05-09T23:52:22.051Z,101316.60
2023-05-09T23:57:24.897Z,101313.85
